Time;durP1;ratioP1;P1;durP2;ratioP2;P2;SDS_P1;SDS_P2;PMS_P1;PMS_P2;Temp;Humidity;BMP_temperature;BMP_pressure;BME280_temperature;BME280_humidity;BME280_pressure;Samples;Min_cycle;Max_cycle;Signal;HPM_P1;HPM_P2
2023/04/22 00:02:02;;;;;;;4.25;2.60;;;;;;;17.99;46.54;100943.94;5083278;28;20062;-38
2023/04/22 00:04:28;;;;;;;3.63;2.67;;;;;;;17.98;46.40;100947.63;5085628;28;20173;-39
2023/04/22 00:06:55;;;;;;;3.95;2.83;;;;;;;17.98;46.54;100953.00;5082453;28;20417;-39
2023/04/22 00:09:22;;;;;;;4.55;3.33;;;;;;;17.97;46.42;100946.78;5078969;28;20048;-39
2023/04/22 00:11:49;;;;;;;3.80;2.97;;;;;;;17.97;46.58;100951.31;5079880;28;20526;-38
2023/04/22 00:14:16;;;;;;;4.07;2.65;;;;;;;17.94;46.39;100940.88;5083152;28;20044;-37
2023/04/22 00:16:42;;;;;;;3.85;2.55;;;;;;;17.94;46.36;100940.88;5080202;28;20074;-41
2023/04/22 00:19:09;;;;;;;4.10;2.80;;;;;;;17.93;46.69;100944.53;5081710;28;20060;-40
2023/04/22 00:21:36;;;;;;;4.60;2.72;;;;;;;17.93;46.52;100941.84;5081477;28;20076;-40
2023/04/22 00:24:02;;;;;;;3.50;2.72;;;;;;;17.92;46.39;100943.69;5081919;28;20210;-39
2023/04/22 00:26:29;;;;;;;7.88;2.53;;;;;;;17.91;46.78;100951.88;5083899;28;20135;-39
2023/04/22 00:28:56;;;;;;;3.83;2.80;;;;;;;17.90;46.70;100945.69;5080772;28;20036;-38
2023/04/22 00:31:22;;;;;;;3.60;2.70;;;;;;;17.90;46.60;100947.53;5081871;28;20056;-38
2023/04/22 00:33:49;;;;;;;3.03;2.50;;;;;;;17.89;46.43;100938.66;5080739;28;20060;-38
2023/04/22 00:36:15;;;;;;;3.55;2.70;;;;;;;17.89;46.59;100943.13;5079286;28;20047;-37
2023/04/22 00:38:47;;;;;;;3.15;2.42;;;;;;;17.88;46.38;100936.09;5083540;28;20043;-37
2023/04/22 00:41:14;;;;;;;3.60;2.47;;;;;;;17.88;46.82;100934.25;5081993;28;20047;-40
2023/04/22 00:43:40;;;;;;;3.10;2.47;;;;;;;17.87;46.92;100934.41;5079395;28;20432;-38
2023/04/22 00:46:08;;;;;;;3.10;2.53;;;;;;;17.86;46.46;100940.78;5095730;28;20056;-40
2023/04/22 00:48:37;;;;;;;3.55;2.60;;;;;;;17.85;46.58;100936.38;5081648;28;20366;-40
2023/04/22 00:51:05;;;;;;;2.95;2.58;;;;;;;17.84;46.80;100932.03;5080259;28;20036;-42
2023/04/22 00:53:31;;;;;;;4.15;2.60;;;;;;;17.84;46.70;100942.75;5083256;28;20048;-41
2023/04/22 00:55:58;;;;;;;3.40;2.63;;;;;;;17.83;46.88;100939.22;5080825;28;20055;-41
2023/04/22 00:58:28;;;;;;;3.65;2.92;;;;;;;17.82;46.19;100945.59;5083407;28;20058;-38
2023/04/22 01:00:55;;;;;;;4.70;2.97;;;;;;;17.84;46.58;100945.44;5080918;28;20040;-40
2023/04/22 01:03:22;;;;;;;3.05;2.40;;;;;;;17.83;46.02;100946.44;5077884;28;20045;-41
2023/04/22 01:07:58;;;;;;;4.35;3.42;;;;;;;17.81;46.64;100941.22;5050505;28;20735;-40
2023/04/22 01:10:24;;;;;;;4.38;2.95;;;;;;;17.85;46.68;100947.97;5044617;28;20053;-41
2023/04/22 01:12:51;;;;;;;3.03;2.63;;;;;;;17.93;46.47;100956.13;5057686;28;20049;-40
2023/04/22 01:15:18;;;;;;;4.90;2.60;;;;;;;18.00;46.36;100948.28;5056275;28;20045;-40
2023/04/22 01:17:44;;;;;;;3.95;2.90;;;;;;;18.09;46.05;100950.09;5054806;28;20040;-40
2023/04/22 01:20:12;;;;;;;3.15;2.65;;;;;;;18.16;46.27;100956.53;5053885;28;20133;-40
2023/04/22 01:22:41;;;;;;;3.90;2.60;;;;;;;18.24;46.12;100961.97;5057009;28;20083;-38
2023/04/22 01:25:10;;;;;;;4.07;2.70;;;;;;;18.31;46.16;100959.53;5050107;28;20049;-39
2023/04/22 01:27:38;;;;;;;3.88;2.60;;;;;;;18.37;45.92;100958.94;5055187;28;20045;-40
2023/04/22 01:30:05;;;;;;;4.10;2.58;;;;;;;18.41;45.67;100962.13;5058418;28;20048;-39
2023/04/22 01:32:32;;;;;;;3.58;2.55;;;;;;;18.45;45.50;100958.13;5050152;28;20207;-39
2023/04/22 01:34:59;;;;;;;5.55;2.75;;;;;;;18.47;45.79;100948.09;5054049;28;20413;-40
2023/04/22 01:37:25;;;;;;;3.33;2.30;;;;;;;18.50;45.59;100955.84;5043760;28;20397;-38
2023/04/22 01:39:52;;;;;;;4.30;2.83;;;;;;;18.53;45.17;100954.69;5048003;28;20051;-40
2023/04/22 01:42:19;;;;;;;3.67;2.60;;;;;;;18.54;45.08;100965.28;5044549;28;20498;-40
2023/04/22 01:44:46;;;;;;;4.35;2.92;;;;;;;18.54;45.08;100961.75;5037518;28;20051;-39
2023/04/22 01:47:12;;;;;;;2.75;2.35;;;;;;;18.54;45.07;100959.09;5050375;28;20348;-40
2023/04/22 01:49:39;;;;;;;4.10;3.10;;;;;;;18.54;45.06;100962.59;5050436;28;20495;-41
2023/04/22 01:52:06;;;;;;;2.88;2.28;;;;;;;18.54;45.45;100965.28;5051151;28;20410;-37
2023/04/22 01:54:33;;;;;;;2.97;2.55;;;;;;;18.53;45.38;100958.22;5051562;28;20075;-40
2023/04/22 01:57:09;;;;;;;4.68;2.60;;;;;;;18.54;45.22;100961.75;5053048;28;20049;-40
2023/04/22 01:59:35;;;;;;;3.47;2.25;;;;;;;18.53;45.13;100958.22;5052277;28;20456;-40
2023/04/22 02:02:02;;;;;;;2.97;2.55;;;;;;;18.53;45.08;100952.00;5048622;28;20048;-39
2023/04/22 02:04:29;;;;;;;3.30;2.90;;;;;;;18.53;45.24;100947.47;5053149;28;20053;-40
2023/04/22 02:06:56;;;;;;;3.63;2.75;;;;;;;18.53;44.96;100946.63;5053524;28;20428;-39
2023/04/22 02:09:22;;;;;;;3.42;2.67;;;;;;;18.53;45.08;100946.63;5052927;28;20067;-38
2023/04/22 02:11:49;;;;;;;3.08;2.38;;;;;;;18.52;45.34;100951.16;5052600;28;20046;-40
2023/04/22 02:14:15;;;;;;;3.60;2.60;;;;;;;18.51;45.11;100944.13;5053618;28;20058;-39
2023/04/22 02:16:42;;;;;;;3.55;2.60;;;;;;;18.51;45.27;100949.50;5046523;28;20064;-40
2023/04/22 02:19:09;;;;;;;3.25;2.40;;;;;;;18.50;44.87;100945.97;5039034;28;20057;-40
2023/04/22 02:21:35;;;;;;;3.47;2.63;;;;;;;18.50;44.87;100947.81;5040497;28;20060;-41
2023/04/22 02:24:02;;;;;;;4.13;2.97;;;;;;;18.47;45.46;100954.31;5036705;28;20369;-38
2023/04/22 02:26:29;;;;;;;3.97;2.90;;;;;;;18.44;45.02;100954.63;5035512;28;20523;-40
2023/04/22 02:28:56;;;;;;;3.40;2.70;;;;;;;18.41;45.16;100941.53;5036135;28;20059;-40
2023/04/22 02:31:22;;;;;;;3.70;2.90;;;;;;;18.37;45.05;100945.50;5034907;28;20053;-40
2023/04/22 02:33:49;;;;;;;3.65;2.72;;;;;;;18.33;45.06;100940.59;5037944;28;20075;-40
2023/04/22 02:36:16;;;;;;;3.00;2.60;;;;;;;18.34;45.30;100940.44;5034919;28;20067;-39
2023/04/22 02:38:42;;;;;;;3.50;2.45;;;;;;;18.39;45.66;100939.97;5032413;28;20434;-40
2023/04/22 02:41:09;;;;;;;4.38;2.92;;;;;;;18.43;45.49;100939.50;5033430;28;20059;-41
2023/04/22 02:43:36;;;;;;;3.75;2.45;;;;;;;18.49;44.84;100930.88;5031341;28;20410;-40
2023/04/22 02:46:03;;;;;;;4.50;2.80;;;;;;;18.54;44.88;100933.06;5032149;28;20480;-40
2023/04/22 02:48:30;;;;;;;3.50;2.40;;;;;;;18.58;45.17;100929.09;5033671;28;20048;-39
2023/04/22 02:50:56;;;;;;;3.20;2.47;;;;;;;18.65;44.91;100926.59;5031585;28;20080;-37
2023/04/22 02:53:23;;;;;;;3.10;2.33;;;;;;;18.69;44.80;100919.94;5034781;28;20056;-40
2023/04/22 02:55:51;;;;;;;3.83;2.70;;;;;;;18.73;44.57;100916.81;5035163;28;20088;-41
2023/04/22 02:58:17;;;;;;;4.00;2.92;;;;;;;18.78;44.72;100919.03;5032941;28;20128;-40
2023/04/22 03:00:44;;;;;;;3.13;2.60;;;;;;;18.80;44.48;100906.28;5039076;28;20333;-39
2023/04/22 03:03:11;;;;;;;3.90;2.55;;;;;;;18.81;44.63;100905.28;5034243;28;20084;-40
2023/04/22 03:05:38;;;;;;;4.40;3.22;;;;;;;18.81;44.87;100910.66;5033002;28;20409;-41
2023/04/22 03:08:05;;;;;;;2.83;2.30;;;;;;;18.81;44.58;100913.34;5032126;28;20038;-40
2023/04/22 03:10:32;;;;;;;3.53;2.50;;;;;;;18.82;44.76;100903.47;5032953;28;20046;-40
2023/04/22 03:12:58;;;;;;;3.25;2.50;;;;;;;18.80;44.63;100903.59;5030943;28;20167;-39
2023/04/22 03:15:25;;;;;;;3.38;2.67;;;;;;;18.80;44.87;100905.44;5033323;28;20041;-40
2023/04/22 03:17:51;;;;;;;3.28;2.55;;;;;;;18.78;44.79;100894.88;5029229;28;20425;-38
2023/04/22 03:20:19;;;;;;;3.92;2.45;;;;;;;18.77;44.24;100893.16;5032618;28;20057;-39
2023/04/22 03:22:45;;;;;;;2.70;2.03;;;;;;;18.77;44.69;100898.53;5033884;28;20139;-40
2023/04/22 03:25:12;;;;;;;3.20;2.40;;;;;;;18.75;44.46;100895.19;5030190;28;20052;-37
2023/04/22 03:27:39;;;;;;;3.22;2.53;;;;;;;18.74;44.43;100894.34;5031589;28;20150;-39
2023/04/22 03:30:06;;;;;;;2.78;2.30;;;;;;;18.71;44.73;100889.28;5031385;28;20041;-39
2023/04/22 03:32:33;;;;;;;3.88;2.63;;;;;;;18.70;44.46;100884.06;5030698;28;20045;-39
2023/04/22 03:35:00;;;;;;;2.78;2.35;;;;;;;18.68;44.64;100886.88;5032027;28;20057;-39
2023/04/22 03:37:27;;;;;;;2.85;2.47;;;;;;;18.66;44.56;100878.13;5033769;28;20060;-37
2023/04/22 03:39:53;;;;;;;2.78;2.30;;;;;;;18.66;44.87;100874.63;5029672;28;20063;-40
2023/04/22 03:42:20;;;;;;;2.67;2.10;;;;;;;18.63;44.92;100867.72;5029828;28;20060;-41
2023/04/22 03:44:46;;;;;;;4.13;2.05;;;;;;;18.63;45.01;100866.88;5034528;28;20148;-40
2023/04/22 03:47:13;;;;;;;3.25;2.20;;;;;;;18.62;44.91;100865.19;5031086;28;20077;-39
2023/04/22 03:49:40;;;;;;;3.28;2.28;;;;;;;18.61;44.51;100869.69;5030040;28;20049;-40
2023/04/22 03:52:07;;;;;;;3.22;2.30;;;;;;;18.60;44.68;100864.50;5030236;28;20333;-40
2023/04/22 03:54:33;;;;;;;3.45;2.30;;;;;;;18.58;44.79;100858.47;5034573;28;20572;-37
2023/04/22 03:57:00;;;;;;;3.80;2.45;;;;;;;18.58;44.54;100859.28;5033329;28;20447;-40
2023/04/22 03:59:26;;;;;;;3.35;2.58;;;;;;;18.57;45.08;100860.28;5047539;28;20045;-40
2023/04/22 04:01:53;;;;;;;3.33;2.70;;;;;;;18.57;44.69;100852.22;5035707;28;20057;-38
2023/04/22 04:04:22;;;;;;;2.80;2.15;;;;;;;18.56;45.19;100857.75;5037265;28;20060;-39
2023/04/22 04:06:48;;;;;;;3.55;2.50;;;;;;;18.55;44.94;100848.88;5034414;28;20441;-38
2023/04/22 04:09:15;;;;;;;2.75;2.15;;;;;;;18.54;44.77;100849.03;5033573;28;20049;-40
2023/04/22 04:11:42;;;;;;;3.20;2.30;;;;;;;18.54;44.97;100843.66;5030709;28;20049;-40
2023/04/22 04:14:08;;;;;;;2.58;1.90;;;;;;;18.53;44.60;100850.84;5033051;28;20128;-37
2023/04/22 04:16:35;;;;;;;3.50;2.38;;;;;;;18.52;44.64;100840.28;5037165;28;20053;-40
2023/04/22 04:19:02;;;;;;;2.40;2.20;;;;;;;18.52;44.78;100842.97;5028570;28;20042;-40
2023/04/22 04:21:32;;;;;;;3.42;2.53;;;;;;;18.49;45.11;100839.59;5032919;28;20071;-40
2023/04/22 04:23:59;;;;;;;2.97;2.28;;;;;;;18.49;45.07;100830.69;5037634;28;20099;-40
2023/04/22 04:26:28;;;;;;;2.40;1.92;;;;;;;18.48;45.02;100831.69;5027439;28;20049;-38
2023/04/22 04:28:54;;;;;;;2.50;2.00;;;;;;;18.49;45.00;100828.00;5032200;28;20071;-40
2023/04/22 04:31:23;;;;;;;3.08;2.17;;;;;;;18.50;44.33;100835.91;5030068;28;20240;-39
2023/04/22 04:33:51;;;;;;;3.58;2.55;;;;;;;18.52;45.20;100837.59;5029088;28;20053;-40
2023/04/22 04:36:18;;;;;;;4.03;2.08;;;;;;;18.54;44.73;100831.09;5030802;28;20046;-40
2023/04/22 04:38:46;;;;;;;3.53;2.30;;;;;;;18.55;45.00;100832.75;5031184;28;20421;-38
2023/04/22 04:41:13;;;;;;;2.10;1.80;;;;;;;18.58;44.86;100823.56;5030173;28;20045;-40
2023/04/22 04:43:40;;;;;;;3.15;2.10;;;;;;;18.61;44.84;100831.28;5031961;28;20080;-40
2023/04/22 04:46:07;;;;;;;2.58;2.10;;;;;;;18.61;44.67;100826.75;5029805;28;20054;-41
2023/04/22 04:48:34;;;;;;;2.13;1.90;;;;;;;18.63;44.48;100831.97;5030318;28;20051;-38
2023/04/22 04:51:03;;;;;;;3.05;2.28;;;;;;;18.66;44.68;100824.44;5032973;28;20064;-40
2023/04/22 04:53:29;;;;;;;2.33;1.85;;;;;;;18.69;44.72;100825.94;5034796;28;20057;-40
2023/04/22 04:55:56;;;;;;;2.20;1.83;;;;;;;18.71;44.95;100829.38;5033327;28;20423;-41
2023/04/22 04:58:22;;;;;;;3.30;2.17;;;;;;;18.72;44.41;100823.84;5034780;28;20079;-39
2023/04/22 05:00:49;;;;;;;2.47;2.10;;;;;;;18.74;44.41;100827.22;5035956;28;20541;-41
2023/04/22 05:03:15;;;;;;;2.63;2.03;;;;;;;18.75;44.46;100822.69;5028985;28;20044;-41
2023/04/22 05:05:42;;;;;;;2.78;2.25;;;;;;;18.75;44.57;100825.38;5035318;28;20429;-40
2023/04/22 05:08:09;;;;;;;2.38;1.77;;;;;;;18.75;44.80;100825.38;5035044;28;20053;-37
2023/04/22 05:10:35;;;;;;;2.13;1.67;;;;;;;18.73;44.75;100827.34;5030263;28;20053;-40
2023/04/22 05:13:02;;;;;;;1.70;1.50;;;;;;;18.73;44.65;100832.72;5032649;28;20140;-40
2023/04/22 05:15:30;;;;;;;2.13;1.65;;;;;;;18.71;44.45;100832.06;5031860;28;20338;-39
2023/04/22 05:17:56;;;;;;;2.08;1.80;;;;;;;18.69;44.93;100829.50;5031857;28;20491;-40
2023/04/22 05:20:23;;;;;;;2.67;2.10;;;;;;;18.68;44.49;100832.34;5034131;28;20414;-38
2023/04/22 05:22:49;;;;;;;3.15;2.25;;;;;;;18.66;44.74;100832.50;5035095;28;20057;-39
2023/04/22 05:25:16;;;;;;;2.13;1.80;;;;;;;18.65;44.51;100827.28;5032668;28;20053;-39
2023/04/22 05:27:43;;;;;;;2.85;2.00;;;;;;;18.61;44.65;100829.44;5038641;28;20404;-39
2023/04/22 05:30:09;;;;;;;3.28;2.15;;;;;;;18.59;45.01;100823.38;5032867;28;20501;-40
2023/04/22 05:32:36;;;;;;;2.30;2.08;;;;;;;18.57;44.45;100829.91;5030803;28;20135;-39
2023/04/22 05:35:03;;;;;;;2.38;2.05;;;;;;;18.52;44.61;100830.38;5034489;28;20050;-38
2023/04/22 05:37:30;;;;;;;2.55;1.90;;;;;;;18.48;44.66;100842.44;5038934;28;20049;-37
2023/04/22 05:39:56;;;;;;;2.30;1.70;;;;;;;18.44;44.62;100844.56;5031239;28;20432;-39
2023/04/22 05:42:23;;;;;;;2.35;2.08;;;;;;;18.39;45.21;100844.22;5026718;28;20136;-40
2023/04/22 05:44:50;;;;;;;2.00;1.80;;;;;;;18.34;45.35;100851.91;5032612;28;20057;-40
2023/04/22 05:47:16;;;;;;;3.25;2.00;;;;;;;18.29;45.07;100854.22;5031026;28;20041;-39
2023/04/22 05:49:43;;;;;;;2.30;2.00;;;;;;;18.25;45.66;100847.44;5034708;28;20061;-40
2023/04/22 05:52:09;;;;;;;2.53;2.10;;;;;;;18.20;45.62;100844.38;5031904;28;20349;-38
2023/04/22 05:54:36;;;;;;;2.70;2.30;;;;;;;18.16;45.72;100848.38;5037268;28;20045;-39
2023/04/22 05:57:03;;;;;;;3.47;2.75;;;;;;;18.12;45.62;100845.16;5034551;28;20053;-39
2023/04/22 05:59:29;;;;;;;2.85;2.10;;;;;;;18.09;45.73;100837.44;5038264;28;20076;-36
2023/04/22 06:01:56;;;;;;;2.30;1.88;;;;;;;18.06;45.52;100837.75;5035031;28;20049;-40
2023/04/22 06:04:22;;;;;;;3.40;2.15;;;;;;;18.03;46.05;100840.72;5038512;28;20053;-39
2023/04/22 06:06:52;;;;;;;2.17;1.98;;;;;;;18.00;46.07;100835.66;5034827;28;20057;-40
2023/04/22 06:09:20;;;;;;;2.72;2.28;;;;;;;17.97;45.89;100842.19;5034976;28;20114;-40
2023/04/22 06:11:47;;;;;;;2.88;2.13;;;;;;;17.95;45.86;100833.44;5035924;28;20049;-40
2023/04/22 06:14:14;;;;;;;2.70;2.13;;;;;;;17.93;46.19;100837.25;5037513;28;20079;-40
2023/04/22 06:16:40;;;;;;;3.03;2.22;;;;;;;17.91;46.58;100833.91;5038596;28;20055;-39
2023/04/22 06:19:07;;;;;;;2.35;2.00;;;;;;;17.89;46.08;100835.88;5039627;28;20049;-37
2023/04/22 06:21:35;;;;;;;2.50;2.10;;;;;;;17.88;46.46;100828.84;5038776;28;20254;-40
2023/04/22 06:24:04;;;;;;;2.22;1.77;;;;;;;17.86;46.27;100830.84;5036193;28;20592;-40
2023/04/22 06:26:31;;;;;;;2.20;1.92;;;;;;;17.85;46.42;100830.00;5033493;28;20061;-40
2023/04/22 06:28:58;;;;;;;2.00;1.80;;;;;;;17.84;46.10;100811.38;5040526;28;20045;-38
2023/04/22 06:31:24;;;;;;;2.90;2.00;;;;;;;17.83;46.60;100804.34;5036914;28;20160;-40
2023/04/22 06:33:51;;;;;;;2.80;2.15;;;;;;;17.83;46.58;100799.81;5037244;28;20081;-40
2023/04/22 06:36:17;;;;;;;2.65;2.13;;;;;;;17.84;46.30;100795.28;5033347;28;20057;-38
2023/04/22 06:38:44;;;;;;;2.15;1.75;;;;;;;17.84;46.32;100800.66;5025195;28;20128;-40
2023/04/22 06:41:11;;;;;;;2.17;1.60;;;;;;;17.85;46.57;100797.84;5026825;28;20056;-40
2023/04/22 06:43:37;;;;;;;2.78;2.17;;;;;;;17.86;46.49;100801.34;5030316;28;20042;-40
2023/04/22 06:46:04;;;;;;;3.10;2.33;;;;;;;17.89;46.24;100803.72;5036288;28;20049;-40
2023/04/22 06:48:31;;;;;;;2.22;1.70;;;;;;;17.89;46.29;100793.84;5036068;28;20143;-40
2023/04/22 06:50:57;;;;;;;2.20;1.60;;;;;;;17.92;46.14;100796.19;5036916;28;20076;-40
2023/04/22 06:53:24;;;;;;;2.13;1.77;;;;;;;17.94;46.66;100790.69;5034436;28;20049;-40
2023/04/22 06:55:52;;;;;;;2.97;2.05;;;;;;;17.95;46.55;100777.13;5038935;28;20430;-40
2023/04/22 06:58:18;;;;;;;4.72;1.63;;;;;;;17.98;46.57;100773.31;5033993;28;20072;-40
2023/04/22 07:00:45;;;;;;;1.90;1.58;;;;;;;18.02;46.22;100773.84;5040371;28;20063;-40
2023/04/22 07:03:12;;;;;;;2.28;2.00;;;;;;;18.04;46.27;100780.72;5038867;28;20061;-38
2023/04/22 07:05:39;;;;;;;2.65;2.00;;;;;;;18.06;46.10;100785.94;5038480;28;20049;-39
2023/04/22 07:08:08;;;;;;;2.17;1.80;;;;;;;18.09;46.39;100789.16;5034977;28;20128;-40
2023/04/22 07:10:35;;;;;;;1.92;1.77;;;;;;;18.11;45.87;100784.47;5032635;28;20345;-40
2023/04/22 07:13:01;;;;;;;2.47;1.70;;;;;;;18.14;46.12;100777.97;5025707;28;20247;-39
2023/04/22 07:15:28;;;;;;;1.55;1.30;;;;;;;18.16;46.16;100789.34;5027961;28;20128;-40
2023/04/22 07:17:54;;;;;;;2.75;2.03;;;;;;;18.19;45.76;100783.69;5027644;28;20425;-40
2023/04/22 07:20:21;;;;;;;2.15;1.60;;;;;;;18.21;46.02;100784.34;5026469;28;20065;-40
2023/04/22 07:22:48;;;;;;;2.10;1.70;;;;;;;18.22;45.82;100778.84;5024581;28;20057;-40
2023/04/22 07:25:14;;;;;;;2.05;1.85;;;;;;;18.24;45.44;100776.00;5027167;28;20456;-37
2023/04/22 07:27:41;;;;;;;2.83;1.73;;;;;;;18.28;45.90;100782.75;5026626;28;20041;-39
2023/04/22 07:30:08;;;;;;;3.08;1.38;;;;;;;18.32;45.75;100775.22;5027843;28;20053;-40
2023/04/22 07:32:34;;;;;;;1.92;1.50;;;;;;;18.33;45.80;100772.41;5029426;28;20052;-40
2023/04/22 07:35:01;;;;;;;2.83;1.83;;;;;;;18.36;45.43;100774.75;5029840;28;20066;-40
2023/04/22 07:37:28;;;;;;;1.60;1.40;;;;;;;18.40;45.82;100778.81;5023173;28;20045;-40
2023/04/22 07:39:54;;;;;;;2.22;1.80;;;;;;;18.42;45.87;100773.28;5029420;28;20132;-40
2023/04/22 07:42:21;;;;;;;5.63;2.60;;;;;;;18.45;45.58;100778.31;5029987;28;20060;-39
2023/04/22 07:44:47;;;;;;;2.17;1.85;;;;;;;18.49;45.53;100779.69;5027436;28;20139;-41
2023/04/22 07:47:14;;;;;;;3.33;2.00;;;;;;;18.50;45.53;100787.59;5026631;28;20196;-40
2023/04/22 07:49:42;;;;;;;2.63;2.28;;;;;;;18.53;45.61;100797.16;5030378;28;20048;-40
2023/04/22 07:52:08;;;;;;;3.28;2.45;;;;;;;18.56;45.93;100788.81;5038847;28;20049;-40
2023/04/22 07:54:35;;;;;;;3.40;2.60;;;;;;;18.60;45.86;100805.44;5037510;28;20053;-39
2023/04/22 07:57:01;;;;;;;4.55;2.67;;;;;;;18.63;45.66;100805.13;5031309;28;20056;-41
2023/04/22 07:59:28;;;;;;;3.85;2.90;;;;;;;18.63;45.53;100808.66;5038648;28;20362;-40
2023/04/22 08:01:55;;;;;;;3.22;2.50;;;;;;;18.65;45.83;100801.28;5036513;28;20175;-39
2023/04/22 08:04:22;;;;;;;3.25;2.60;;;;;;;18.68;45.50;100802.81;5023451;28;20053;-39
2023/04/22 08:06:49;;;;;;;3.70;2.80;;;;;;;18.69;45.59;100796.41;5032222;28;20442;-40
2023/04/22 08:09:16;;;;;;;3.90;2.72;;;;;;;18.69;45.01;100786.56;5032595;28;20056;-40
2023/04/22 08:11:42;;;;;;;3.95;2.60;;;;;;;18.71;45.83;100778.34;5028934;28;20049;-40
2023/04/22 08:14:09;;;;;;;2.53;2.25;;;;;;;18.71;45.33;100770.31;5029275;28;20140;-40
2023/04/22 08:16:38;;;;;;;4.13;2.88;;;;;;;18.72;45.73;100771.97;5024806;28;20049;-41
2023/04/22 08:19:04;;;;;;;4.85;3.10;;;;;;;18.74;45.14;100776.19;5026436;28;20422;-40
2023/04/22 08:21:31;;;;;;;6.18;3.17;;;;;;;18.76;45.53;100761.75;5023965;28;20144;-40
2023/04/22 08:23:58;;;;;;;4.63;3.53;;;;;;;18.76;45.47;100749.19;5028938;28;20053;-40
2023/04/22 08:26:24;;;;;;;3.85;2.90;;;;;;;18.77;45.33;100744.66;5039263;28;20064;-39
2023/04/22 08:28:51;;;;;;;4.95;3.13;;;;;;;18.79;45.34;100739.97;5028524;28;20136;-41
2023/04/22 08:31:18;;;;;;;4.43;2.92;;;;;;;18.80;45.30;100738.97;5030254;28;20063;-40
2023/04/22 08:33:44;;;;;;;4.35;3.13;;;;;;;18.81;45.40;100743.31;5030367;28;20053;-41
2023/04/22 08:36:11;;;;;;;3.80;2.80;;;;;;;18.82;45.50;100748.53;5026317;28;20051;-40
2023/04/22 08:38:38;;;;;;;5.40;3.35;;;;;;;18.83;45.35;100744.84;5029312;28;20792;-41
2023/04/22 08:41:05;;;;;;;4.60;3.20;;;;;;;18.84;45.48;100748.38;5030226;28;20060;-40
2023/04/22 08:43:33;;;;;;;4.93;2.95;;;;;;;18.85;45.41;100742.00;5027287;28;20053;-38
2023/04/22 08:46:01;;;;;;;5.15;2.90;;;;;;;18.87;45.11;100750.75;5035549;28;20307;-40
2023/04/22 08:48:27;;;;;;;4.60;2.50;;;;;;;18.89;44.80;100743.34;5029992;28;20491;-41
2023/04/22 08:50:54;;;;;;;5.00;3.22;;;;;;;18.90;45.30;100750.44;5033882;28;20080;-41
2023/04/22 08:53:20;;;;;;;3.42;2.63;;;;;;;18.91;45.26;100744.88;5037609;28;20235;-40
2023/04/22 08:55:50;;;;;;;4.20;3.30;;;;;;;18.94;44.98;100746.41;5026746;28;20053;-40
2023/04/22 08:58:17;;;;;;;4.15;2.95;;;;;;;18.95;45.15;100743.56;5024921;28;20038;-41
2023/04/22 09:00:44;;;;;;;3.97;2.88;;;;;;;18.98;44.48;100745.09;5026444;28;20049;-40
2023/04/22 09:03:11;;;;;;;4.68;3.08;;;;;;;18.99;44.83;100738.72;5024605;28;20396;-41
2023/04/22 09:05:39;;;;;;;3.83;2.63;;;;;;;19.02;44.54;100732.19;5027610;28;20382;-40
2023/04/22 09:08:06;;;;;;;4.43;2.90;;;;;;;19.04;44.78;100738.22;5029685;28;20060;-41
2023/04/22 09:10:37;;;;;;;2.90;2.25;;;;;;;19.06;45.00;100739.75;5027851;28;20451;-40
2023/04/22 09:13:05;;;;;;;5.57;3.83;;;;;;;19.08;45.19;100720.75;5025910;28;20049;-40
2023/04/22 09:15:32;;;;;;;8.13;4.78;;;;;;;19.10;45.14;100724.97;5024292;28;20443;-40
2023/04/22 09:18:01;;;;;;;4.78;3.35;;;;;;;19.13;44.88;100711.19;5026810;28;20137;-40
2023/04/22 09:20:29;;;;;;;7.40;4.28;;;;;;;19.15;44.82;100713.75;5030049;28;20045;-36
2023/04/22 09:23:00;;;;;;;20.40;11.63;;;;;;;19.17;45.95;100707.19;5030205;28;20080;-41
2023/04/22 09:25:27;;;;;;;21.42;12.52;;;;;;;19.21;45.91;100702.31;5028043;28;20057;-40
2023/04/22 09:27:58;;;;;;;18.27;10.77;;;;;;;19.23;46.44;100703.00;5022226;28;20045;-41
2023/04/22 09:30:28;;;;;;;18.77;11.23;;;;;;;19.27;46.13;100696.31;5028441;28;20061;-40
2023/04/22 09:33:00;;;;;;;18.25;10.43;;;;;;;19.31;46.37;100691.44;5034628;28;20053;-40
2023/04/22 09:35:31;;;;;;;16.77;9.77;;;;;;;19.35;45.88;100684.72;5042937;28;20048;-40
2023/04/22 09:38:00;;;;;;;18.10;10.10;;;;;;;19.37;46.17;100667.41;5038714;28;20148;-40
2023/04/22 09:40:30;;;;;;;18.83;9.82;;;;;;;19.42;46.04;100661.56;5040784;28;20053;-40
2023/04/22 09:43:00;;;;;;;15.45;10.02;;;;;;;19.45;46.03;100651.28;5038199;28;20056;-38
2023/04/22 09:45:31;;;;;;;16.67;9.77;;;;;;;19.50;45.88;100640.06;5037552;28;20053;-40
2023/04/22 09:48:18;;;;;;;16.27;9.55;;;;;;;19.52;45.80;100626.44;5038218;28;20077;-40
2023/04/22 09:50:47;;;;;;;15.20;9.02;;;;;;;19.56;45.93;100623.22;5041686;28;20092;-39
2023/04/22 09:53:16;;;;;;;16.95;9.90;;;;;;;19.60;45.64;100639.88;5041252;28;20085;-40
2023/04/22 09:55:46;;;;;;;16.20;9.35;;;;;;;19.62;46.09;100660.25;5043907;28;20053;-40
2023/04/22 09:58:15;;;;;;;15.63;9.02;;;;;;;19.66;45.58;100676.88;5033565;28;20056;-40
2023/04/22 10:00:50;;;;;;;15.02;8.27;;;;;;;19.68;45.90;100680.22;5035990;28;21904;-40
2023/04/22 10:03:17;;;;;;;14.45;8.98;;;;;;;19.69;45.75;100684.59;5033459;28;20054;-40
2023/04/22 10:05:44;;;;;;;15.90;9.10;;;;;;;19.70;45.88;100678.22;5035804;28;20389;-39
2023/04/22 10:08:13;;;;;;;12.85;7.85;;;;;;;19.71;45.01;100685.28;5036622;28;20049;-40
2023/04/22 10:10:40;;;;;;;13.32;8.07;;;;;;;19.73;45.22;100686.78;5051554;28;20045;-40
2023/04/22 10:13:07;;;;;;;15.27;8.40;;;;;;;19.76;45.09;100685.59;5034990;28;20052;-37
2023/04/22 10:15:47;;;;;;;13.80;8.15;;;;;;;19.78;45.10;100680.03;5036632;28;20075;-41
2023/04/22 10:18:20;;;;;;;13.18;7.97;;;;;;;19.81;45.30;100672.47;5033779;28;20041;-40
2023/04/22 10:20:47;;;;;;;13.27;7.80;;;;;;;19.83;45.22;100680.41;5039321;28;20395;-40
2023/04/22 10:23:18;;;;;;;14.30;8.38;;;;;;;19.84;45.21;100679.38;5038359;28;20060;-40
2023/04/22 10:25:51;;;;;;;14.13;8.82;;;;;;;19.85;45.55;100675.69;5038783;28;20326;-38
2023/04/22 10:28:20;;;;;;;14.38;8.40;;;;;;;19.85;45.20;100676.50;5031431;28;20054;-40
2023/04/22 10:30:47;;;;;;;18.83;9.05;;;;;;;19.86;45.22;100663.91;5037460;28;20400;-40
2023/04/22 10:33:19;;;;;;;13.77;8.52;;;;;;;19.87;45.45;100673.66;5037267;28;20356;-41
2023/04/22 10:36:09;;;;;;;14.85;9.10;;;;;;;19.85;45.41;100665.75;5041227;28;20057;-40
2023/04/22 10:38:40;;;;;;;14.48;8.57;;;;;;;19.89;44.90;100663.56;5039570;28;20961;-40
2023/04/22 10:41:12;;;;;;;15.38;8.35;;;;;;;19.90;45.43;100668.78;5034917;28;20099;-40
2023/04/22 10:43:40;;;;;;;14.35;8.65;;;;;;;19.92;44.73;100664.06;5041146;28;20128;-38
2023/04/22 10:46:36;;;;;;;14.32;8.43;;;;;;;19.93;45.45;100678.34;5036092;28;20049;-40
2023/04/22 10:49:11;;;;;;;13.15;8.43;;;;;;;19.95;44.57;100692.50;5037198;28;20225;-40
2023/04/22 10:51:41;;;;;;;13.77;8.02;;;;;;;19.93;44.87;100697.19;5039493;28;20053;-40
2023/04/22 10:54:35;;;;;;;15.10;8.60;;;;;;;19.91;44.53;100701.91;5041450;28;20055;-41
2023/04/22 10:57:10;;;;;;;12.88;8.07;;;;;;;19.93;45.07;100702.56;5039327;28;20099;-40
2023/04/22 10:59:45;;;;;;;15.65;9.10;;;;;;;19.92;44.51;100706.28;5037738;28;20067;-40
2023/04/22 11:02:16;;;;;;;15.57;8.63;;;;;;;19.91;44.73;100694.69;5033345;28;20049;-40
2023/04/22 11:04:43;;;;;;;15.07;8.80;;;;;;;19.90;45.35;100684.06;5040683;28;20057;-39
2023/04/22 11:07:25;;;;;;;15.20;9.43;;;;;;;19.89;44.78;100682.41;5037410;28;20065;-40
2023/04/22 11:09:59;;;;;;;14.98;9.55;;;;;;;19.88;45.00;100684.25;5037865;28;20444;-40
2023/04/22 11:12:38;;;;;;;16.70;10.20;;;;;;;19.88;45.64;100692.31;5035072;28;20050;-40
2023/04/22 11:15:05;;;;;;;16.35;10.40;;;;;;;19.88;45.38;100696.84;5037769;28;20103;-39
2023/04/22 11:17:32;;;;;;;16.48;10.05;;;;;;;19.87;45.01;100687.13;5032826;28;20068;-40
2023/04/22 11:20:00;;;;;;;16.63;9.90;;;;;;;19.86;45.40;100677.34;5039956;28;20076;-40
2023/04/22 11:22:26;;;;;;;14.75;9.52;;;;;;;19.86;45.22;100669.28;5041988;28;20076;-37
2023/04/22 11:24:57;;;;;;;16.70;10.13;;;;;;;19.84;44.90;100661.38;5038357;28;20453;-39
2023/04/22 11:27:25;;;;;;;19.77;11.07;;;;;;;19.85;45.58;100673.81;5033719;28;20128;-40
2023/04/22 11:30:01;;;;;;;14.65;9.43;;;;;;;19.84;46.22;100677.53;5035162;28;20060;-41